Time;durP1;ratioP1;P1;durP2;ratioP2;P2;SDS_P1;SDS_P2;PMS_P1;PMS_P2;Temp;Humidity;BMP_temperature;BMP_pressure;BME280_temperature;BME280_humidity;BME280_pressure;Samples;Min_cycle;Max_cycle;Signal;HPM_P1;HPM_P2
2023/11/19 00:02:08;;;;;;;15.50;11.50;;;;;;;7.70;100.00;100203.00;5033373;28;20413;-70
2023/11/19 00:04:40;;;;;;;18.88;11.85;;;;;;;7.69;100.00;100196.00;5043862;28;20076;-70
2023/11/19 00:07:10;;;;;;;16.70;11.10;;;;;;;7.69;100.00;100200.41;5041888;28;20052;-70
2023/11/19 00:09:39;;;;;;;17.40;11.90;;;;;;;7.67;100.00;100186.44;5043837;28;20104;-70
2023/11/19 00:12:13;;;;;;;18.20;11.98;;;;;;;7.67;100.00;100195.19;5026340;28;20440;-69
2023/11/19 00:14:44;;;;;;;19.25;12.05;;;;;;;7.67;100.00;100176.75;5053861;28;20053;-69
2023/11/19 00:17:17;;;;;;;18.00;12.05;;;;;;;7.73;100.00;100183.53;5051676;28;20066;-70
2023/11/19 00:19:46;;;;;;;19.23;12.18;;;;;;;7.69;100.00;100174.06;5046878;28;20057;-70
2023/11/19 00:22:15;;;;;;;17.38;12.90;;;;;;;7.73;100.00;100199.34;5022326;28;20041;-69
2023/11/19 00:24:47;;;;;;;18.27;11.70;;;;;;;7.79;100.00;100206.19;5048948;28;20127;-70
2023/11/19 00:27:15;;;;;;;19.13;12.02;;;;;;;7.77;100.00;100206.25;5048987;28;20502;-68
2023/11/19 00:29:46;;;;;;;18.38;12.85;;;;;;;7.78;100.00;100210.59;5031380;28;20037;-70
2023/11/19 00:32:15;;;;;;;17.25;12.15;;;;;;;7.79;100.00;100193.88;5036248;28;20429;-70
2023/11/19 00:34:44;;;;;;;17.15;12.40;;;;;;;7.81;100.00;100189.41;5050008;28;20049;-70
2023/11/19 00:37:15;;;;;;;19.42;12.25;;;;;;;7.81;100.00;100186.75;5044954;28;20124;-70
2023/11/19 00:39:43;;;;;;;18.35;13.38;;;;;;;7.80;100.00;100178.91;5058872;28;20094;-68
2023/11/19 00:42:18;;;;;;;21.30;13.40;;;;;;;7.79;100.00;100174.56;5042180;28;20068;-69
2023/11/19 00:44:50;;;;;;;18.58;14.00;;;;;;;7.74;100.00;100165.03;5044869;28;20072;-69
2023/11/19 00:47:20;;;;;;;20.17;12.88;;;;;;;7.81;100.00;100178.00;5028727;28;20067;-70
2023/11/19 00:49:49;;;;;;;;;;;;;;;7.86;100.00;100178.69;5046099;28;20136;-69
2023/11/19 00:52:18;;;;;;;21.60;12.90;;;;;;;7.90;100.00;100180.25;5036494;28;20076;-69
2023/11/19 00:54:46;;;;;;;15.85;12.63;;;;;;;7.92;100.00;100173.16;5047209;28;20041;-70
2023/11/19 00:57:14;;;;;;;19.70;13.02;;;;;;;7.92;100.00;100183.69;5055248;28;20053;-69
2023/11/19 00:59:42;;;;;;;19.83;13.43;;;;;;;7.90;100.00;100170.56;5047793;28;20092;-69
2023/11/19 01:02:14;;;;;;;16.55;12.88;;;;;;;7.95;100.00;100168.63;5035920;28;20045;-70
2023/11/19 01:04:45;;;;;;;17.33;12.52;;;;;;;7.96;100.00;100157.16;5043122;28;20452;-70
2023/11/19 01:07:13;;;;;;;17.00;11.35;;;;;;;7.96;100.00;100151.88;5048949;28;20064;-71
2023/11/19 01:09:43;;;;;;;21.40;12.15;;;;;;;8.00;100.00;100145.56;5044651;28;20048;-69
2023/11/19 01:12:14;;;;;;;18.83;12.90;;;;;;;7.99;100.00;100159.69;5034691;28;20057;-69
2023/11/19 01:14:45;;;;;;;17.35;12.95;;;;;;;8.02;100.00;100148.16;5035415;28;20045;-70
2023/11/19 01:17:14;;;;;;;18.33;12.55;;;;;;;8.01;100.00;100134.09;5033921;28;20049;-70
2023/11/19 01:19:43;;;;;;;16.30;12.38;;;;;;;8.09;100.00;100133.78;5043329;28;20037;-69
2023/11/19 01:22:11;;;;;;;15.77;11.77;;;;;;;8.09;100.00;100121.44;5040458;28;20045;-70
2023/11/19 01:24:40;;;;;;;16.85;11.68;;;;;;;8.13;100.00;100116.06;5048856;28;20037;-69
2023/11/19 01:27:08;;;;;;;15.95;11.10;;;;;;;8.15;100.00;100099.25;5046468;28;20057;-69
2023/11/19 01:29:38;;;;;;;14.55;10.63;;;;;;;8.17;100.00;100118.50;5048637;28;20119;-71
2023/11/19 01:32:12;;;;;;;15.15;10.40;;;;;;;8.19;100.00;100126.34;5038431;28;20055;-68
2023/11/19 01:34:42;;;;;;;13.73;10.25;;;;;;;8.13;100.00;100135.38;5049885;28;20135;-70
2023/11/19 01:37:12;;;;;;;17.17;11.45;;;;;;;8.14;100.00;100138.88;5029182;28;20643;-69
2023/11/19 01:39:40;;;;;;;14.48;10.90;;;;;;;8.06;100.00;100118.94;5048396;28;20404;-72
2023/11/19 01:42:08;;;;;;;15.85;10.75;;;;;;;8.12;100.00;100131.03;5056825;28;20055;-69
2023/11/19 01:44:37;;;;;;;15.60;11.38;;;;;;;8.15;100.00;100124.78;5063309;28;20041;-69
2023/11/19 01:47:10;;;;;;;16.27;11.05;;;;;;;8.17;100.00;100120.28;5050748;28;20471;-70
2023/11/19 01:49:39;;;;;;;12.68;10.02;;;;;;;8.17;100.00;100123.78;5044418;28;20133;-70
2023/11/19 01:52:09;;;;;;;14.65;10.82;;;;;;;8.19;100.00;100121.06;5044920;28;20139;-70
2023/11/19 01:54:37;;;;;;;;;;;;;;;8.20;100.00;100121.00;5047047;28;20041;-70
2023/11/19 01:57:06;;;;;;;13.80;9.75;;;;;;;8.20;100.00;100106.94;5048438;28;20523;-70
2023/11/19 01:59:34;;;;;;;14.73;11.07;;;;;;;8.18;100.00;100099.13;5064877;28;20251;-70
2023/11/19 02:02:03;;;;;;;15.50;10.43;;;;;;;8.21;100.00;100096.34;5063360;28;20618;-70
2023/11/19 02:04:34;;;;;;;16.13;10.73;;;;;;;8.21;100.00;100077.88;5041832;28;20137;-70
2023/11/19 02:07:05;;;;;;;12.85;9.70;;;;;;;8.30;100.00;100076.66;5049186;28;20037;-70
2023/11/19 02:09:35;;;;;;;13.65;10.40;;;;;;;8.30;100.00;100084.56;5051311;28;20051;-70
2023/11/19 02:12:04;;;;;;;13.07;10.10;;;;;;;8.28;100.00;100067.94;5042461;28;20069;-69
2023/11/19 02:14:37;;;;;;;12.75;9.90;;;;;;;8.34;100.00;100081.72;5042642;28;20052;-69
2023/11/19 02:17:05;;;;;;;14.48;10.40;;;;;;;8.28;100.00;100068.78;5051899;28;20036;-69
2023/11/19 02:19:34;;;;;;;13.90;10.43;;;;;;;8.28;100.00;100060.03;5048764;28;20052;-69
2023/11/19 02:22:03;;;;;;;15.30;10.30;;;;;;;8.29;100.00;100059.09;5047529;28;20049;-69
2023/11/19 02:24:34;;;;;;;17.08;10.75;;;;;;;8.25;100.00;100049.59;5046263;28;20118;-71
2023/11/19 02:27:11;;;;;;;11.77;9.45;;;;;;;8.24;100.00;100040.81;5043001;28;20077;-70
2023/11/19 02:29:41;;;;;;;13.23;9.98;;;;;;;8.31;100.00;100059.91;5050140;28;20052;-70
2023/11/19 02:32:09;;;;;;;13.93;9.90;;;;;;;8.30;100.00;100061.69;5046795;28;20045;-69
2023/11/19 02:34:37;;;;;;;12.50;9.43;;;;;;;8.25;100.00;100052.22;5045852;28;20036;-70
2023/11/19 02:37:05;;;;;;;13.95;9.63;;;;;;;8.32;100.00;100065.13;5051223;28;20048;-71
2023/11/19 02:39:33;;;;;;;11.80;9.77;;;;;;;8.36;100.00;100060.56;5050579;28;20055;-70
2023/11/19 02:42:02;;;;;;;13.18;9.75;;;;;;;8.33;100.00;100058.94;5027977;28;20502;-70
2023/11/19 02:44:30;;;;;;;11.25;8.93;;;;;;;8.32;100.00;100053.72;5058116;28;20491;-70
2023/11/19 02:47:00;;;;;;;11.45;9.15;;;;;;;8.37;100.00;100059.63;5041901;28;20071;-70
2023/11/19 02:49:37;;;;;;;10.65;8.65;;;;;;;8.38;100.00;100051.66;5049249;28;20044;-69
2023/11/19 02:52:06;;;;;;;11.57;9.20;;;;;;;8.39;100.00;100040.19;5045058;28;20041;-70
2023/11/19 02:54:41;;;;;;;13.70;8.82;;;;;;;8.40;100.00;100039.25;5028186;28;20061;-69
2023/11/19 02:57:40;;;;;;;14.13;8.55;;;;;;;8.43;100.00;100052.34;5049967;28;20053;-69
2023/11/19 03:00:12;;;;;;;11.02;8.27;;;;;;;8.44;100.00;100042.63;5049906;28;20052;-69
2023/11/19 03:02:46;;;;;;;13.43;8.20;;;;;;;8.44;100.00;100047.91;5039084;28;20045;-68
2023/11/19 03:05:16;;;;;;;10.32;8.15;;;;;;;8.39;100.00;100034.06;5023011;28;20208;-70
2023/11/19 03:07:44;;;;;;;11.85;8.20;;;;;;;8.44;100.00;100038.22;5043444;28;20047;-70
2023/11/19 03:10:17;;;;;;;10.70;7.32;;;;;;;8.49;100.00;100043.31;5045274;28;20117;-69
2023/11/19 03:12:46;;;;;;;8.75;6.75;;;;;;;8.53;100.00;100018.47;5043023;28;20048;-69
2023/11/19 03:15:18;;;;;;;9.48;7.13;;;;;;;8.55;100.00;100008.69;5059768;28;20049;-72
2023/11/19 03:17:48;;;;;;;9.75;7.78;;;;;;;8.56;100.00;100013.06;5049175;28;20052;-71
2023/11/19 03:20:17;;;;;;;;;;;;;;;8.59;100.00;100014.72;5028877;28;20091;-70
2023/11/19 03:22:47;;;;;;;9.80;7.10;;;;;;;8.57;100.00;100021.84;5056182;28;20004;-69
2023/11/19 03:25:17;;;;;;;7.95;6.43;;;;;;;8.56;100.00;100015.69;5044545;28;20343;-70
2023/11/19 03:27:48;;;;;;;9.20;7.25;;;;;;;8.60;100.00;100014.66;5046434;28;20099;-70
2023/11/19 03:30:17;;;;;;;8.50;6.88;;;;;;;8.62;100.00;100007.53;5038465;28;20045;-70
2023/11/19 03:32:49;;;;;;;8.70;6.95;;;;;;;8.68;100.00;100019.56;5040726;28;20142;-68
2023/11/19 03:35:17;;;;;;;9.53;7.10;;;;;;;8.73;100.00;100021.06;5058571;28;20049;-70
2023/11/19 03:37:50;;;;;;;8.40;6.78;;;;;;;8.73;100.00;100031.63;5040829;28;20142;-70
2023/11/19 03:40:19;;;;;;;9.38;7.00;;;;;;;8.72;100.00;100024.66;5044568;28;20046;-70
2023/11/19 03:42:48;;;;;;;10.75;7.90;;;;;;;8.75;100.00;100011.31;5037766;28;20051;-69
2023/11/19 03:45:16;;;;;;;10.75;7.35;;;;;;;8.73;100.00;100004.38;5057217;28;20057;-69
2023/11/19 03:47:49;;;;;;;8.50;7.57;;;;;;;8.68;100.00;100004.59;5024473;28;20114;-70
2023/11/19 03:50:23;;;;;;;9.35;7.22;;;;;;;8.71;100.00;100019.44;5044570;28;20135;-70
2023/11/19 03:52:52;;;;;;;8.88;7.45;;;;;;;8.74;100.00;100019.28;5034358;28;20033;-69
2023/11/19 03:55:20;;;;;;;10.27;7.20;;;;;;;8.73;100.00;100010.53;5038245;28;20076;-69
2023/11/19 03:57:50;;;;;;;9.30;7.90;;;;;;;8.72;100.00;100011.44;5040129;28;20167;-70
2023/11/19 04:00:23;;;;;;;9.63;8.27;;;;;;;8.74;100.00;100009.59;5039306;28;20048;-70
2023/11/19 04:02:51;;;;;;;10.27;7.55;;;;;;;8.76;100.00;100007.75;5038713;28;20257;-70
2023/11/19 04:05:20;;;;;;;8.63;7.50;;;;;;;8.78;100.00;100011.19;5036985;28;20041;-71
2023/11/19 04:07:48;;;;;;;8.55;7.15;;;;;;;8.83;100.00;100008.31;5048321;28;20048;-69
2023/11/19 04:10:17;;;;;;;8.10;7.03;;;;;;;8.84;100.00;100006.53;5049051;28;20101;-71
2023/11/19 04:12:46;;;;;;;8.10;7.07;;;;;;;8.84;100.00;99998.59;5020545;28;20040;-69
2023/11/19 04:15:15;;;;;;;7.80;6.75;;;;;;;8.86;100.00;100002.03;5042252;28;20500;-70
2023/11/19 04:17:47;;;;;;;8.73;7.00;;;;;;;8.90;100.00;99990.41;5045247;28;20590;-69
2023/11/19 04:20:17;;;;;;;8.13;6.43;;;;;;;8.86;100.00;99989.69;5043429;28;20056;-70
2023/11/19 04:22:48;;;;;;;7.82;6.38;;;;;;;8.91;100.00;99994.75;5035965;28;20041;-69
2023/11/19 04:25:19;;;;;;;8.52;6.22;;;;;;;8.89;100.00;100001.91;5037706;28;20113;-70
2023/11/19 04:27:48;;;;;;;7.47;6.00;;;;;;;8.91;100.00;99992.97;5045096;28;20055;-71
2023/11/19 04:30:16;;;;;;;8.48;5.20;;;;;;;8.93;100.00;99988.50;5033418;28;20456;-71
2023/11/19 04:32:44;;;;;;;7.68;6.05;;;;;;;8.96;100.00;99984.84;5039816;28;20041;-69
2023/11/19 04:35:13;;;;;;;8.63;6.30;;;;;;;8.97;100.00;99981.28;5060969;28;20048;-70
2023/11/19 04:37:45;;;;;;;7.50;5.57;;;;;;;9.03;100.00;99968.63;5041454;28;20048;-71
2023/11/19 04:40:15;;;;;;;7.13;5.60;;;;;;;9.03;100.00;99967.78;5045161;28;20029;-70
2023/11/19 04:42:45;;;;;;;6.43;5.75;;;;;;;9.02;100.00;99966.91;5048395;28;20188;-71
2023/11/19 04:45:14;;;;;;;7.20;5.38;;;;;;;8.95;100.00;99943.53;5049406;28;20060;-71
2023/11/19 04:47:42;;;;;;;5.70;4.68;;;;;;;9.04;100.00;99965.06;5046262;28;20058;-70
2023/11/19 04:50:11;;;;;;;5.32;4.65;;;;;;;9.05;100.00;99969.41;5051371;28;20056;-70
2023/11/19 04:52:42;;;;;;;7.78;5.63;;;;;;;9.09;100.00;99972.78;5048123;28;20041;-69
2023/11/19 04:55:12;;;;;;;6.53;5.47;;;;;;;9.13;100.00;99963.75;5061597;28;20072;-69
2023/11/19 04:57:43;;;;;;;7.88;5.70;;;;;;;9.12;100.00;99972.63;5053729;28;20046;-71
2023/11/19 05:00:13;;;;;;;6.40;5.72;;;;;;;9.12;100.00;99970.00;5051818;28;20049;-71
2023/11/19 05:02:46;;;;;;;7.70;5.90;;;;;;;9.15;100.00;99961.91;5049324;28;20064;-71
2023/11/19 05:05:17;;;;;;;8.30;6.77;;;;;;;9.14;100.00;99963.69;5044476;28;20049;-69
2023/11/19 05:07:45;;;;;;;8.60;6.88;;;;;;;9.13;100.00;99969.88;5052524;28;20040;-69
2023/11/19 05:10:15;;;;;;;7.57;6.63;;;;;;;9.14;100.00;99986.59;5055874;28;20570;-69
2023/11/19 05:12:45;;;;;;;7.97;7.07;;;;;;;9.12;100.00;99975.28;5062439;28;20038;-70
2023/11/19 05:15:14;;;;;;;8.68;7.13;;;;;;;9.09;100.00;99981.56;5026452;28;20542;-69
2023/11/19 05:17:42;;;;;;;8.95;7.00;;;;;;;9.10;100.00;99975.34;5052332;28;20385;-69
2023/11/19 05:20:13;;;;;;;9.52;7.70;;;;;;;9.15;100.00;99988.31;5052785;28;20052;-70
2023/11/19 05:22:43;;;;;;;8.57;7.38;;;;;;;9.15;100.00;99978.59;5051942;28;20033;-69
2023/11/19 05:25:14;;;;;;;8.13;7.00;;;;;;;9.14;100.00;99971.59;5039977;28;20033;-70
2023/11/19 05:27:46;;;;;;;8.48;7.53;;;;;;;9.16;100.00;99960.97;5048474;28;20110;-68
2023/11/19 05:30:14;;;;;;;7.90;6.60;;;;;;;9.15;100.00;99967.19;5052212;28;20114;-71
2023/11/19 05:32:43;;;;;;;7.68;6.88;;;;;;;9.18;100.00;99972.31;5052064;28;20040;-69
2023/11/19 05:35:12;;;;;;;8.82;7.18;;;;;;;9.20;100.00;99990.75;5040420;28;20053;-70
2023/11/19 05:37:41;;;;;;;8.40;6.70;;;;;;;9.23;100.00;99975.63;5056876;28;20041;-70
2023/11/19 05:40:14;;;;;;;7.97;6.70;;;;;;;9.24;100.00;99977.31;5035420;28;20526;-70
2023/11/19 05:42:46;;;;;;;7.57;6.68;;;;;;;9.25;100.00;99965.81;5057690;28;20618;-71
2023/11/19 05:45:15;;;;;;;8.15;6.63;;;;;;;9.29;100.00;99959.44;5056302;28;20048;-70
2023/11/19 05:47:45;;;;;;;9.30;6.78;;;;;;;9.32;100.00;99943.44;5062341;28;20064;-70
2023/11/19 05:50:14;;;;;;;7.53;5.80;;;;;;;9.35;100.00;99945.09;5064109;28;20041;-70
2023/11/19 05:52:41;;;;;;;8.63;6.50;;;;;;;9.23;100.00;99928.06;5069891;28;20100;-69
2023/11/19 05:55:10;;;;;;;9.65;7.63;;;;;;;9.37;100.00;99953.81;5053302;28;20388;-70
2023/11/19 05:57:44;;;;;;;8.40;6.78;;;;;;;9.35;100.00;99951.22;5064870;28;20091;-70
2023/11/19 06:00:17;;;;;;;10.25;7.03;;;;;;;9.37;100.00;99957.31;5058058;28;20041;-70
2023/11/19 06:02:46;;;;;;;8.93;7.45;;;;;;;9.39;100.00;99965.16;5061087;28;20037;-70
2023/11/19 06:05:17;;;;;;;9.23;6.85;;;;;;;9.38;100.00;99958.16;5052519;28;20043;-69
2023/11/19 06:07:46;;;;;;;11.45;7.85;;;;;;;9.39;100.00;99965.16;5067505;28;20068;-69
2023/11/19 06:10:16;;;;;;;8.75;6.70;;;;;;;9.40;100.00;99967.72;5074212;28;20087;-69
2023/11/19 06:12:46;;;;;;;10.73;7.25;;;;;;;9.42;100.00;99970.28;5052576;28;20042;-69
2023/11/19 06:15:15;;;;;;;9.40;7.38;;;;;;;9.41;100.00;99968.59;5044010;28;20572;-68
2023/11/19 06:17:46;;;;;;;;;;;;;;;9.43;100.00;99977.28;5031959;28;20061;-70
2023/11/19 06:20:17;;;;;;;9.23;7.47;;;;;;;9.43;100.00;99980.78;5050781;28;19956;-70
2023/11/19 06:22:45;;;;;;;11.88;7.40;;;;;;;9.44;100.00;99989.59;5032521;28;20087;-69
2023/11/19 06:25:14;;;;;;;10.30;7.85;;;;;;;9.44;100.00;99986.94;5043030;28;20057;-69
2023/11/19 06:27:44;;;;;;;9.93;7.97;;;;;;;9.42;100.00;99987.00;5048968;28;20049;-69
2023/11/19 06:30:13;;;;;;;10.38;8.15;;;;;;;9.48;100.00;99984.03;5032819;28;20033;-71
2023/11/19 06:32:42;;;;;;;10.82;7.93;;;;;;;9.49;100.00;99983.13;5047268;28;20449;-69
2023/11/19 06:35:11;;;;;;;11.13;7.70;;;;;;;9.48;100.00;99976.13;5040280;28;20456;-68
2023/11/19 06:37:41;;;;;;;10.77;7.72;;;;;;;9.47;100.00;99984.97;5048070;28;20047;-69
2023/11/19 06:40:10;;;;;;;10.73;7.38;;;;;;;9.45;100.00;99981.56;5043842;28;20061;-68
2023/11/19 06:42:38;;;;;;;10.13;6.97;;;;;;;9.46;100.00;99990.34;5045801;28;20091;-71
2023/11/19 06:45:09;;;;;;;8.98;7.05;;;;;;;9.47;100.00;99990.25;5035008;28;20042;-70
2023/11/19 06:47:37;;;;;;;8.27;6.68;;;;;;;9.50;100.00;99992.75;5049684;28;20045;-70
2023/11/19 06:50:09;;;;;;;8.45;6.47;;;;;;;9.54;100.00;99985.53;5047881;28;20045;-70
2023/11/19 06:52:38;;;;;;;11.38;6.55;;;;;;;9.58;100.00;99999.47;5047235;28;20084;-71
2023/11/19 06:55:06;;;;;;;8.70;6.10;;;;;;;9.62;100.00;99993.94;5021547;28;20052;-72
2023/11/19 06:57:35;;;;;;;10.00;6.33;;;;;;;9.57;100.00;99987.19;5044643;28;20090;-71
2023/11/19 07:00:05;;;;;;;10.15;6.60;;;;;;;9.63;100.00;99992.16;5050548;28;20592;-69
2023/11/19 07:02:36;;;;;;;7.95;6.47;;;;;;;9.64;100.00;99996.50;5047663;28;20422;-69
2023/11/19 07:05:05;;;;;;;9.10;6.45;;;;;;;9.65;100.00;99985.00;5036062;28;20045;-69
2023/11/19 07:07:36;;;;;;;7.65;6.20;;;;;;;9.70;100.00;99986.50;5045156;28;20443;-69
2023/11/19 07:10:08;;;;;;;9.77;6.25;;;;;;;9.73;100.00;99989.00;5046677;28;20053;-69
2023/11/19 07:12:38;;;;;;;8.40;6.53;;;;;;;9.76;100.00;99990.59;5047500;28;20052;-69
2023/11/19 07:15:09;;;;;;;9.55;6.72;;;;;;;9.80;100.00;99989.53;5037906;28;20068;-69
2023/11/19 07:17:40;;;;;;;8.90;6.88;;;;;;;9.81;100.00;99994.75;5055490;28;20110;-69
2023/11/19 07:20:13;;;;;;;9.40;6.63;;;;;;;9.78;100.00;99983.47;5049374;28;20055;-70
2023/11/19 07:22:45;;;;;;;9.52;6.70;;;;;;;9.88;100.00;99999.75;5048561;28;20523;-70
2023/11/19 07:25:14;;;;;;;9.90;6.80;;;;;;;9.92;100.00;99988.03;5039586;28;20055;-69
2023/11/19 07:27:42;;;;;;;11.15;7.22;;;;;;;9.92;100.00;99988.03;5048407;28;20044;-70
2023/11/19 07:30:11;;;;;;;11.32;7.30;;;;;;;9.96;100.00;99992.25;5047059;28;20087;-70
2023/11/19 07:32:40;;;;;;;9.00;7.18;;;;;;;10.00;100.00;99994.69;5045000;28;20045;-70
2023/11/19 07:35:09;;;;;;;10.50;7.28;;;;;;;10.00;100.00;99996.47;5042599;28;20069;-70
2023/11/19 07:37:37;;;;;;;9.38;7.32;;;;;;;10.04;100.00;100000.66;5050626;28;20048;-69
2023/11/19 07:40:11;;;;;;;9.60;7.10;;;;;;;10.09;100.00;99993.34;5050330;28;20041;-71
2023/11/19 07:42:39;;;;;;;11.23;6.88;;;;;;;10.09;100.00;99988.03;5066922;28;20054;-69
2023/11/19 07:45:10;;;;;;;9.13;7.22;;;;;;;10.13;100.00;99993.09;5040449;28;20045;-71
2023/11/19 07:47:38;;;;;;;10.07;7.93;;;;;;;10.13;100.00;99993.09;5038476;28;20524;-70
2023/11/19 07:50:09;;;;;;;11.60;8.25;;;;;;;10.16;100.00;99998.25;5051783;28;20063;-69
2023/11/19 07:52:39;;;;;;;10.82;7.70;;;;;;;10.10;100.00;99979.19;5055507;28;20548;-70
2023/11/19 07:55:13;;;;;;;12.07;8.43;;;;;;;10.18;100.00;99987.59;5055275;28;20037;-71
2023/11/19 07:57:44;;;;;;;13.20;9.27;;;;;;;10.26;100.00;100005.72;5046621;28;20103;-70
2023/11/19 08:00:16;;;;;;;12.65;9.02;;;;;;;10.29;100.00;100005.56;5046096;28;20135;-69
2023/11/19 08:02:44;;;;;;;12.90;9.25;;;;;;;10.31;100.00;100009.84;5044969;28;20044;-71
2023/11/19 08:05:13;;;;;;;11.43;8.88;;;;;;;10.35;100.00;100021.16;5038750;28;20050;-70
2023/11/19 08:07:44;;;;;;;14.13;8.85;;;;;;;10.36;100.00;100022.88;5036278;28;20349;-70
2023/11/19 08:10:17;;;;;;;14.52;8.15;;;;;;;10.41;100.00;100028.75;5047534;28;20037;-71
2023/11/19 08:12:45;;;;;;;12.73;8.90;;;;;;;10.47;100.00;100024.00;5030006;28;20513;-69
2023/11/19 08:15:15;;;;;;;11.40;9.10;;;;;;;10.53;100.00;100025.50;5035461;28;20060;-69
2023/11/19 08:17:59;;;;;;;12.20;8.85;;;;;;;10.60;100.00;100029.50;5050656;28;20045;-69
2023/11/19 08:20:28;;;;;;;11.40;9.02;;;;;;;10.66;100.00;100026.53;5048895;28;20091;-70
2023/11/19 08:22:59;;;;;;;12.73;8.90;;;;;;;10.73;100.00;100019.13;5055399;28;20045;-69
2023/11/19 08:25:35;;;;;;;12.18;8.40;;;;;;;10.72;100.00;100007.66;5051169;28;20032;-70
2023/11/19 08:28:06;;;;;;;10.45;8.52;;;;;;;10.70;100.00;100016.66;5036438;28;20053;-70
2023/11/19 08:30:35;;;;;;;9.70;7.68;;;;;;;10.66;100.00;100015.97;5051851;28;20041;-68
2023/11/19 08:33:05;;;;;;;9.57;7.60;;;;;;;10.64;100.00;100015.19;5050816;28;20040;-70
2023/11/19 08:35:34;;;;;;;9.07;7.32;;;;;;;10.66;100.00;100037.13;5037417;28;20224;-72
2023/11/19 08:38:04;;;;;;;9.48;7.32;;;;;;;10.64;100.00;100033.72;5048097;28;20049;-69
2023/11/19 08:40:33;;;;;;;9.75;7.10;;;;;;;10.63;100.00;100037.28;5064139;28;20048;-69
2023/11/19 08:43:03;;;;;;;8.38;6.72;;;;;;;10.62;100.00;100035.59;5043732;28;20093;-69
2023/11/19 08:45:32;;;;;;;10.35;7.25;;;;;;;10.69;100.00;100029.03;5034481;28;21077;-70
2023/11/19 08:48:03;;;;;;;9.38;6.93;;;;;;;10.78;100.00;100040.91;5040291;28;20095;-68
2023/11/19 08:50:32;;;;;;;9.80;7.38;;;;;;;10.89;100.00;100041.19;5046859;28;20076;-70
2023/11/19 08:53:00;;;;;;;8.02;6.60;;;;;;;10.89;100.00;100036.75;5033703;28;20053;-70
2023/11/19 08:55:36;;;;;;;8.00;6.40;;;;;;;10.93;100.00;100039.25;5038347;28;20155;-70
2023/11/19 08:58:05;;;;;;;9.82;6.50;;;;;;;10.94;100.00;100033.00;5041225;28;20047;-70
2023/11/19 09:00:33;;;;;;;6.30;5.47;;;;;;;10.96;100.00;100029.34;5044480;28;20044;-71
2023/11/19 09:03:03;;;;;;;10.00;5.70;;;;;;;10.88;100.00;100023.59;5045879;28;20490;-69
2023/11/19 09:05:34;;;;;;;7.35;5.80;;;;;;;10.85;100.00;100035.22;5039808;28;20232;-69
2023/11/19 09:08:08;;;;;;;6.57;5.88;;;;;;;10.89;100.00;100035.91;5048888;28;20067;-70
2023/11/19 09:10:39;;;;;;;7.10;5.22;;;;;;;10.83;100.00;100028.28;5054804;28;20131;-69
2023/11/19 09:13:08;;;;;;;6.57;5.32;;;;;;;10.84;100.00;100043.25;5044180;28;20564;-69
2023/11/19 09:15:38;;;;;;;7.40;5.10;;;;;;;10.82;100.00;100035.38;5034007;28;20132;-69
2023/11/19 09:18:06;;;;;;;7.72;6.30;;;;;;;10.81;100.00;100024.88;5042496;28;20497;-70
2023/11/19 09:20:39;;;;;;;9.00;6.55;;;;;;;10.88;100.00;100018.28;5036898;28;20048;-70
2023/11/19 09:23:08;;;;;;;8.68;6.20;;;;;;;10.99;100.00;100023.88;5045492;28;20043;-69
2023/11/19 09:25:39;;;;;;;10.00;7.35;;;;;;;11.15;100.00;100034.50;5029432;28;20041;-70
2023/11/19 09:28:13;;;;;;;9.25;6.40;;;;;;;11.32;100.00;100031.78;5046403;28;20114;-70
2023/11/19 09:30:51;;;;;;;7.13;6.18;;;;;;;11.50;100.00;100020.09;5045547;28;20048;-70
2023/11/19 09:33:20;;;;;;;7.15;5.63;;;;;;;11.59;100.00;100024.91;5045674;28;20845;-69
2023/11/19 09:35:50;;;;;;;7.03;5.43;;;;;;;11.59;100.00;100034.66;5041991;28;20044;-70
2023/11/19 09:38:20;;;;;;;6.88;5.20;;;;;;;11.62;100.00;100029.19;5045635;28;20053;-70
2023/11/19 09:40:51;;;;;;;6.40;5.25;;;;;;;11.67;100.00;100037.72;5046776;28;20034;-68
2023/11/19 09:43:20;;;;;;;4.80;4.30;;;;;;;11.77;100.00;100038.94;5047336;28;20049;-70
2023/11/19 09:45:57;;;;;;;5.75;4.43;;;;;;;11.87;100.00;100047.22;5040080;28;20127;-70
2023/11/19 09:48:27;;;;;;;4.97;4.47;;;;;;;11.89;100.00;100040.88;5049724;28;20044;-69
2023/11/19 09:50:59;;;;;;;5.07;4.43;;;;;;;11.91;100.00;100046.09;5047820;28;20494;-70
2023/11/19 09:53:33;;;;;;;6.20;4.25;;;;;;;11.93;100.00;100044.22;5045674;28;20053;-70
2023/11/19 09:56:05;;;;;;;5.22;4.28;;;;;;;11.94;100.00;100038.84;5041073;28;20045;-70
2023/11/19 09:58:34;;;;;;;6.90;4.18;;;;;;;12.01;100.00;100038.44;5035790;28;20045;-70
2023/11/19 10:01:06;;;;;;;5.28;4.18;;;;;;;12.04;100.00;100036.47;5051225;28;20374;-70
2023/11/19 10:03:39;;;;;;;7.53;4.13;;;;;;;12.08;100.00;100035.38;5030564;28;20045;-69
2023/11/19 10:06:12;;;;;;;6.50;4.30;;;;;;;12.10;100.00;100036.13;5042502;28;20052;-70
2023/11/19 10:08:41;;;;;;;6.00;4.07;;;;;;;12.12;100.00;100031.56;5053556;28;20068;-70
2023/11/19 10:11:15;;;;;;;6.70;3.70;;;;;;;12.14;100.00;100028.81;5034096;28;20415;-69
2023/11/19 10:13:47;;;;;;;6.60;3.40;;;;;;;12.20;100.00;100031.13;5050605;28;20037;-71
2023/11/19 10:16:17;;;;;;;7.50;3.25;;;;;;;12.29;100.00;100026.09;5045154;28;20047;-70
2023/11/19 10:18:52;;;;;;;4.20;2.63;;;;;;;12.34;100.00;100022.34;5051441;28;20053;-68
2023/11/19 10:21:24;;;;;;;6.38;3.50;;;;;;;12.39;100.00;100028.22;5049550;28;20045;-69
2023/11/19 10:23:56;;;;;;;3.72;2.33;;;;;;;12.46;100.00;100011.81;5047596;28;20053;-70
2023/11/19 10:26:31;;;;;;;5.57;2.70;;;;;;;12.54;100.00;100009.56;5040179;28;20079;-68
2023/11/19 10:28:59;;;;;;;4.65;2.10;;;;;;;12.57;100.00;99996.09;5049906;28;20045;-68
2023/11/19 10:31:28;;;;;;;6.45;2.38;;;;;;;12.59;100.00;100001.31;5044456;28;20041;-70
2023/11/19 10:33:56;;;;;;;7.22;2.30;;;;;;;12.61;100.00;100005.56;5018973;28;20057;-71
2023/11/19 10:36:40;;;;;;;9.18;2.00;;;;;;;12.66;100.00;99999.97;5023657;28;20104;-68
2023/11/19 10:39:11;;;;;;;7.20;2.03;;;;;;;12.70;100.00;100001.50;5036861;28;20053;-69
2023/11/19 10:41:43;;;;;;;5.20;1.77;;;;;;;12.75;100.00;100007.38;5050862;28;20473;-69
2023/11/19 10:44:13;;;;;;;6.93;2.53;;;;;;;12.79;100.00;99998.25;5052141;28;20040;-69
2023/11/19 10:46:43;;;;;;;6.22;1.70;;;;;;;12.90;100.00;100003.78;5041400;28;20776;-68
2023/11/19 10:49:15;;;;;;;8.55;2.25;;;;;;;12.90;100.00;99994.97;5050527;28;20514;-69
2023/11/19 10:51:47;;;;;;;7.22;1.73;;;;;;;12.96;100.00;99994.56;5044873;28;20041;-69
2023/11/19 10:54:18;;;;;;;9.68;2.33;;;;;;;13.03;100.00;99984.41;5062820;28;20828;-69
2023/11/19 10:56:56;;;;;;;7.45;1.80;;;;;;;13.09;100.00;99970.69;5038595;28;20088;-72
2023/11/19 10:59:25;;;;;;;8.25;1.85;;;;;;;13.18;100.00;99980.78;5049149;28;20088;-69
2023/11/19 11:01:59;;;;;;;7.68;1.60;;;;;;;13.18;100.00;99986.13;5067042;28;20102;-69
2023/11/19 11:04:31;;;;;;;8.82;2.25;;;;;;;13.16;100.00;99974.72;5045610;28;20045;-71
2023/11/19 11:07:06;;;;;;;6.63;1.63;;;;;;;13.10;100.00;99981.25;5038663;28;20041;-71
2023/11/19 11:09:36;;;;;;;7.93;1.98;;;;;;;13.07;100.00;99968.13;5051285;28;20382;-69
2023/11/19 11:12:07;;;;;;;8.50;1.55;;;;;;;13.10;100.00;99973.25;5041769;28;20067;-69
2023/11/19 11:14:40;;;;;;;10.52;2.90;;;;;;;13.00;100.00;99943.78;5050628;28;20067;-70
2023/11/19 11:17:12;;;;;;;7.35;1.67;;;;;;;13.03;100.00;99964.00;5041189;28;20045;-70
2023/11/19 11:19:43;;;;;;;10.20;2.20;;;;;;;12.98;100.00;99956.31;5050162;28;20061;-70
2023/11/19 11:22:14;;;;;;;13.20;2.00;;;;;;;13.00;100.00;99958.88;5035091;28;20072;-71
2023/11/19 11:25:06;;;;;;;8.40;1.67;;;;;;;12.95;100.00;99958.28;5051654;28;20033;-69
2023/11/19 11:28:05;;;;;;;11.27;2.05;;;;;;;12.90;100.00;99966.59;5042116;28;20124;-71
2023/11/19 11:30:47;;;;;;;10.57;1.45;;;;;;;12.86;100.00;99962.41;5048673;28;20128;-70
2023/11/19 11:33:34;;;;;;;11.18;2.08;;;;;;;12.82;100.00;99968.84;5046575;28;20053;-69
2023/11/19 11:36:14;;;;;;;14.38;2.63;;;;;;;12.84;100.00;99974.94;5041061;28;20527;-70
2023/11/19 11:38:43;;;;;;;12.13;1.92;;;;;;;12.81;100.00;99977.78;5046749;28;20076;-70